Spivey, KS (67142)

3:38 PM CDT on September 01, 2014 (GMT -0500)
Weed Dept | Change Station
CLOSE
Current Station
Personal Weather Station
Location: Anthony, KS
Elevation: 1352 ft
Nearby Weather Stations

Elev 1352 ft 37.15 °N, 98.06 °W | Updated 9 minutes ago

Mostly Cloudy
Mostly Cloudy
92.3 °F
Feels Like 101 °F
N
4.2
Wind Variable Wind from SSW

Today
High -- | Low -- °F
--% Chance of Precip.
Yesterday
High -- | Low -- °F
Precip. -- in
7:03 AM 8:01 PM
Waxing Crescent, 44% visible
Pressure 29.88 in
Visibility 10.0 miles
Clouds Mostly Cloudy 2800 ft
Mostly Cloudy 4000 ft
Mostly Cloudy 5000 ft
Heat Index 101 °F
Dew Point 73 °F
Humidity 53%
Rainfall 0.00 in
Snow Depth Not available.
UV 4 out of 12
Pollen 11.10 out of 12
Air Quality Not available.
Flu Activity Not available.
METAR KPTT 012015Z AUTO 04011G17KT 10SM BKN028 BKN040 BKN050 27/17 A2988 RMK AO2

More Conditions Fewer Conditions

Pressure 29.88 in
Visibility 10.0 miles
Clouds Mostly Cloudy 2800 ft
Mostly Cloudy 4000 ft
Mostly Cloudy 5000 ft
Heat Index 101 °F
Dew Point 73 °F
Humidity 53%
Rainfall 0.00 in
Snow Depth Not available.
UV 4 out of 12
Pollen 11.10 out of 12
Air Quality Not available.
Flu Activity Not available.
METAR KPTT 012015Z AUTO 04011G17KT 10SM BKN028 BKN040 BKN050 27/17 A2988 RMK AO2

More Conditions Fewer Conditions

10-Day Weather Forecast

Almanac

Astronomy

Sep. 01, 2014 Rise Set
Actual Time 7:03 AM CDT 8:01 PM CDT
Civil Twilight 6:36 AM CDT 8:28 PM CDT
Nautical Twilight 6:04 AM CDT 8:59 PM CDT
Astronomical Twilight 5:31 AM CDT 9:32 PM CDT
Moon 1:42 PM CDT No Moon Set
Length of Visible Light 13h 51m
Length of Day
12h 58m
Tomorrow will be 2m 18s shorter.
Waxing Crescent, 44% of the Moon is Illuminated
Today
Waxing Crescent
Sep 2
First Quarter
Sep 8
Full
Sep 15
Last Quarter
Sep 24
New

Today's Extremes

State Highs State Lows

Community

WunderPhotos

Upload Photos

1,749,398 photos uploaded!

WunderBlogs® & News

Nearby

Snow Depth

Station Depth Elevation
No new snow has been reported.

Earthquake Activity

City Distance Mag. Time & Date
Perry, Oklahoma 96 miles 3.1 6:46 AM CDT
2014-09-01
Jones, Oklahoma 136 miles 3.1 1:49 PM CDT
2014-08-31
Enid, Oklahoma 58 miles 3.4 11:57 AM CDT
2014-08-31
Enid, Oklahoma 59 miles 3.7 2:20 AM CDT
2014-08-31
Minimum magnitude displayed is 2.5.

Coastal Water Temperatures

Place Temperature
No Stations Reporting

Nearby Weather Stations